sensor_id;sensor_type;location;lat;lon;timestamp;temperature;humidity
1812;DHT22;904;47.814;11.134;2022-12-29T00:00:04;4.90;64.20
1812;DHT22;904;47.814;11.134;2022-12-29T00:02:32;4.90;64.10
1812;DHT22;904;47.814;11.134;2022-12-29T00:04:59;4.80;63.20
1812;DHT22;904;47.814;11.134;2022-12-29T00:07:27;4.80;63.30
1812;DHT22;904;47.814;11.134;2022-12-29T00:09:54;4.80;63.40
1812;DHT22;904;47.814;11.134;2022-12-29T00:12:22;4.70;63.00
1812;DHT22;904;47.814;11.134;2022-12-29T00:14:49;4.70;62.80
1812;DHT22;904;47.814;11.134;2022-12-29T00:17:33;4.60;63.20
1812;DHT22;904;47.814;11.134;2022-12-29T00:20:01;4.70;62.80
1812;DHT22;904;47.814;11.134;2022-12-29T00:22:55;4.70;62.30
1812;DHT22;904;47.814;11.134;2022-12-29T00:25:40;4.70;62.40
1812;DHT22;904;47.814;11.134;2022-12-29T00:28:25;4.60;62.40
1812;DHT22;904;47.814;11.134;2022-12-29T00:31:11;4.60;62.10
1812;DHT22;904;47.814;11.134;2022-12-29T00:33:56;4.60;61.70
1812;DHT22;904;47.814;11.134;2022-12-29T00:36:42;4.70;62.00
1812;DHT22;904;47.814;11.134;2022-12-29T00:39:13;4.60;62.00
1812;DHT22;904;47.814;11.134;2022-12-29T00:42:03;4.60;62.90
1812;DHT22;904;47.814;11.134;2022-12-29T00:44:48;4.60;63.30
1812;DHT22;904;47.814;11.134;2022-12-29T00:47:15;4.70;62.20
1812;DHT22;904;47.814;11.134;2022-12-29T00:49:42;4.70;61.90
1812;DHT22;904;47.814;11.134;2022-12-29T00:52:10;4.70;61.20
1812;DHT22;904;47.814;11.134;2022-12-29T00:54:40;4.80;61.40
1812;DHT22;904;47.814;11.134;2022-12-29T00:57:09;4.80;61.60
1812;DHT22;904;47.814;11.134;2022-12-29T00:59:37;4.80;60.90
1812;DHT22;904;47.814;11.134;2022-12-29T01:02:04;4.90;60.30
1812;DHT22;904;47.814;11.134;2022-12-29T01:04:32;4.90;60.20
1812;DHT22;904;47.814;11.134;2022-12-29T01:06:59;4.90;59.90
1812;DHT22;904;47.814;11.134;2022-12-29T01:09:26;4.90;59.80
1812;DHT22;904;47.814;11.134;2022-12-29T01:12:13;5.00;59.60
1812;DHT22;904;47.814;11.134;2022-12-29T01:14:40;5.00;59.70
1812;DHT22;904;47.814;11.134;2022-12-29T01:17:07;4.90;59.50
1812;DHT22;904;47.814;11.134;2022-12-29T01:19:34;5.00;59.60
1812;DHT22;904;47.814;11.134;2022-12-29T01:22:01;5.00;59.60
1812;DHT22;904;47.814;11.134;2022-12-29T01:24:29;5.00;59.80
1812;DHT22;904;47.814;11.134;2022-12-29T01:26:56;5.00;59.20
1812;DHT22;904;47.814;11.134;2022-12-29T01:29:24;5.00;59.20
1812;DHT22;904;47.814;11.134;2022-12-29T01:31:51;5.00;59.10
1812;DHT22;904;47.814;11.134;2022-12-29T01:34:18;5.00;59.10
1812;DHT22;904;47.814;11.134;2022-12-29T01:36:45;5.00;58.80
1812;DHT22;904;47.814;11.134;2022-12-29T01:39:12;5.00;59.00
1812;DHT22;904;47.814;11.134;2022-12-29T01:41:39;5.00;59.30
1812;DHT22;904;47.814;11.134;2022-12-29T01:47:13;4.90;58.80
1812;DHT22;904;47.814;11.134;2022-12-29T01:49:41;4.90;59.10
1812;DHT22;904;47.814;11.134;2022-12-29T01:52:08;4.90;59.20
1812;DHT22;904;47.814;11.134;2022-12-29T01:54:37;5.00;58.70
1812;DHT22;904;47.814;11.134;2022-12-29T01:57:10;5.00;58.80
1812;DHT22;904;47.814;11.134;2022-12-29T01:59:43;5.00;58.90
1812;DHT22;904;47.814;11.134;2022-12-29T02:02:14;4.90;59.10
1812;DHT22;904;47.814;11.134;2022-12-29T02:04:42;4.90;59.10
1812;DHT22;904;47.814;11.134;2022-12-29T02:07:15;5.00;59.30
1812;DHT22;904;47.814;11.134;2022-12-29T02:09:45;5.10;59.10
1812;DHT22;904;47.814;11.134;2022-12-29T02:12:13;5.10;58.90
1812;DHT22;904;47.814;11.134;2022-12-29T02:14:41;5.10;58.90
1812;DHT22;904;47.814;11.134;2022-12-29T02:17:15;5.00;58.80
1812;DHT22;904;47.814;11.134;2022-12-29T02:22:50;5.10;59.00
1812;DHT22;904;47.814;11.134;2022-12-29T02:25:41;5.10;58.90
1812;DHT22;904;47.814;11.134;2022-12-29T02:31:17;5.20;59.30
1812;DHT22;904;47.814;11.134;2022-12-29T02:34:00;5.30;59.40
1812;DHT22;904;47.814;11.134;2022-12-29T02:36:39;5.30;58.70
1812;DHT22;904;47.814;11.134;2022-12-29T02:39:15;5.40;58.80
1812;DHT22;904;47.814;11.134;2022-12-29T02:41:52;5.40;57.70
1812;DHT22;904;47.814;11.134;2022-12-29T02:44:29;5.40;57.90
1812;DHT22;904;47.814;11.134;2022-12-29T02:47:07;5.40;57.70
1812;DHT22;904;47.814;11.134;2022-12-29T02:49:39;5.50;57.50
1812;DHT22;904;47.814;11.134;2022-12-29T02:52:15;5.60;57.30
1812;DHT22;904;47.814;11.134;2022-12-29T02:54:43;5.50;57.30
1812;DHT22;904;47.814;11.134;2022-12-29T02:57:14;5.50;57.20
1812;DHT22;904;47.814;11.134;2022-12-29T02:59:42;5.50;57.50
1812;DHT22;904;47.814;11.134;2022-12-29T03:02:30;5.50;57.70
1812;DHT22;904;47.814;11.134;2022-12-29T03:05:30;5.50;57.30
1812;DHT22;904;47.814;11.134;2022-12-29T03:08:05;5.50;57.60
1812;DHT22;904;47.814;11.134;2022-12-29T03:10:41;5.50;57.70
1812;DHT22;904;47.814;11.134;2022-12-29T03:13:19;5.50;57.90
1812;DHT22;904;47.814;11.134;2022-12-29T03:16:18;5.50;57.30
1812;DHT22;904;47.814;11.134;2022-12-29T03:18:55;5.40;57.20
1812;DHT22;904;47.814;11.134;2022-12-29T03:21:29;5.30;57.10
1812;DHT22;904;47.814;11.134;2022-12-29T03:24:11;5.30;57.40
1812;DHT22;904;47.814;11.134;2022-12-29T03:26:40;5.30;57.40
1812;DHT22;904;47.814;11.134;2022-12-29T03:29:08;5.30;57.30
1812;DHT22;904;47.814;11.134;2022-12-29T03:31:37;5.30;56.60
1812;DHT22;904;47.814;11.134;2022-12-29T03:34:08;5.30;56.90
1812;DHT22;904;47.814;11.134;2022-12-29T03:36:40;5.20;56.80
1812;DHT22;904;47.814;11.134;2022-12-29T03:39:11;5.30;57.00
1812;DHT22;904;47.814;11.134;2022-12-29T03:41:41;5.30;57.20
1812;DHT22;904;47.814;11.134;2022-12-29T03:44:10;5.40;56.80
1812;DHT22;904;47.814;11.134;2022-12-29T03:46:38;5.50;57.00
1812;DHT22;904;47.814;11.134;2022-12-29T03:49:07;5.60;56.20
1812;DHT22;904;47.814;11.134;2022-12-29T03:51:34;5.70;55.80
1812;DHT22;904;47.814;11.134;2022-12-29T03:54:01;5.70;56.10
1812;DHT22;904;47.814;11.134;2022-12-29T03:56:28;5.70;56.20
1812;DHT22;904;47.814;11.134;2022-12-29T03:58:55;5.80;55.80
1812;DHT22;904;47.814;11.134;2022-12-29T04:01:22;5.80;56.00
1812;DHT22;904;47.814;11.134;2022-12-29T04:03:49;5.80;56.10
1812;DHT22;904;47.814;11.134;2022-12-29T04:06:18;5.80;55.00
1812;DHT22;904;47.814;11.134;2022-12-29T04:08:45;5.80;55.40
1812;DHT22;904;47.814;11.134;2022-12-29T04:11:12;5.80;55.40
1812;DHT22;904;47.814;11.134;2022-12-29T04:13:39;5.80;55.70
1812;DHT22;904;47.814;11.134;2022-12-29T04:16:07;5.90;55.40
1812;DHT22;904;47.814;11.134;2022-12-29T04:18:34;6.00;55.10
1812;DHT22;904;47.814;11.134;2022-12-29T04:21:02;6.10;54.60
1812;DHT22;904;47.814;11.134;2022-12-29T04:23:32;6.10;54.90
1812;DHT22;904;47.814;11.134;2022-12-29T04:26:00;6.00;54.50
1812;DHT22;904;47.814;11.134;2022-12-29T04:28:28;6.10;54.70
1812;DHT22;904;47.814;11.134;2022-12-29T04:30:55;6.10;54.80
1812;DHT22;904;47.814;11.134;2022-12-29T04:33:22;6.10;54.90
1812;DHT22;904;47.814;11.134;2022-12-29T04:35:50;6.20;55.00
1812;DHT22;904;47.814;11.134;2022-12-29T04:38:18;6.20;54.50
1812;DHT22;904;47.814;11.134;2022-12-29T04:40:47;6.20;54.30
1812;DHT22;904;47.814;11.134;2022-12-29T04:43:14;6.20;54.20
1812;DHT22;904;47.814;11.134;2022-12-29T04:45:43;6.20;54.00
1812;DHT22;904;47.814;11.134;2022-12-29T04:48:11;6.20;53.80
1812;DHT22;904;47.814;11.134;2022-12-29T04:50:38;6.30;53.80
1812;DHT22;904;47.814;11.134;2022-12-29T04:53:06;6.30;53.80
1812;DHT22;904;47.814;11.134;2022-12-29T04:55:33;6.20;53.60
1812;DHT22;904;47.814;11.134;2022-12-29T04:58:01;6.20;53.60
1812;DHT22;904;47.814;11.134;2022-12-29T05:00:29;6.30;53.90
1812;DHT22;904;47.814;11.134;2022-12-29T05:02:57;6.30;53.30
1812;DHT22;904;47.814;11.134;2022-12-29T05:05:24;6.40;53.20
1812;DHT22;904;47.814;11.134;2022-12-29T05:07:51;6.50;53.20
1812;DHT22;904;47.814;11.134;2022-12-29T05:10:18;6.50;52.70
1812;DHT22;904;47.814;11.134;2022-12-29T05:12:45;6.60;53.10
1812;DHT22;904;47.814;11.134;2022-12-29T05:15:15;6.60;53.10
1812;DHT22;904;47.814;11.134;2022-12-29T05:17:42;6.70;53.40
1812;DHT22;904;47.814;11.134;2022-12-29T05:20:10;6.80;53.60
1812;DHT22;904;47.814;11.134;2022-12-29T05:22:37;6.80;54.00
1812;DHT22;904;47.814;11.134;2022-12-29T05:25:05;6.90;54.60
1812;DHT22;904;47.814;11.134;2022-12-29T05:27:32;6.90;53.00
1812;DHT22;904;47.814;11.134;2022-12-29T05:29:59;6.90;51.90
1812;DHT22;904;47.814;11.134;2022-12-29T05:32:30;6.90;52.00
1812;DHT22;904;47.814;11.134;2022-12-29T05:34:58;6.90;52.10
1812;DHT22;904;47.814;11.134;2022-12-29T05:37:24;6.90;52.10
1812;DHT22;904;47.814;11.134;2022-12-29T05:39:52;7.00;51.30
1812;DHT22;904;47.814;11.134;2022-12-29T05:42:19;7.00;51.70
1812;DHT22;904;47.814;11.134;2022-12-29T05:44:46;7.00;52.20
1812;DHT22;904;47.814;11.134;2022-12-29T05:47:15;7.00;52.00
1812;DHT22;904;47.814;11.134;2022-12-29T05:49:44;7.00;52.20
1812;DHT22;904;47.814;11.134;2022-12-29T05:52:11;6.90;51.70
1812;DHT22;904;47.814;11.134;2022-12-29T05:54:38;6.90;51.90
1812;DHT22;904;47.814;11.134;2022-12-29T05:57:05;7.00;51.90
1812;DHT22;904;47.814;11.134;2022-12-29T05:59:32;7.00;52.50
1812;DHT22;904;47.814;11.134;2022-12-29T06:01:59;7.00;52.90
1812;DHT22;904;47.814;11.134;2022-12-29T06:04:26;7.00;52.60
1812;DHT22;904;47.814;11.134;2022-12-29T06:06:55;7.00;52.40
1812;DHT22;904;47.814;11.134;2022-12-29T06:09:22;7.00;52.00
1812;DHT22;904;47.814;11.134;2022-12-29T06:11:49;7.00;52.20
1812;DHT22;904;47.814;11.134;2022-12-29T06:14:17;7.00;52.10
1812;DHT22;904;47.814;11.134;2022-12-29T06:16:44;7.00;51.80
1812;DHT22;904;47.814;11.134;2022-12-29T06:19:11;7.10;51.80
1812;DHT22;904;47.814;11.134;2022-12-29T06:21:39;7.10;52.30
1812;DHT22;904;47.814;11.134;2022-12-29T06:24:07;7.20;52.30
1812;DHT22;904;47.814;11.134;2022-12-29T06:26:36;7.20;51.70
1812;DHT22;904;47.814;11.134;2022-12-29T06:29:03;7.20;51.70
1812;DHT22;904;47.814;11.134;2022-12-29T06:31:30;7.20;51.40
1812;DHT22;904;47.814;11.134;2022-12-29T06:33:58;7.20;51.10
1812;DHT22;904;47.814;11.134;2022-12-29T06:36:25;7.20;52.00
1812;DHT22;904;47.814;11.134;2022-12-29T06:38:52;7.20;52.20
1812;DHT22;904;47.814;11.134;2022-12-29T06:41:21;7.30;52.30
1812;DHT22;904;47.814;11.134;2022-12-29T06:43:48;7.30;52.80
1812;DHT22;904;47.814;11.134;2022-12-29T06:46:15;7.30;53.70
1812;DHT22;904;47.814;11.134;2022-12-29T06:48:42;7.20;53.70
1812;DHT22;904;47.814;11.134;2022-12-29T06:51:10;7.30;53.30
1812;DHT22;904;47.814;11.134;2022-12-29T06:53:37;7.30;53.30
1812;DHT22;904;47.814;11.134;2022-12-29T06:56:04;7.30;53.30
1812;DHT22;904;47.814;11.134;2022-12-29T06:58:33;7.30;52.50
1812;DHT22;904;47.814;11.134;2022-12-29T07:01:00;7.30;51.60
1812;DHT22;904;47.814;11.134;2022-12-29T07:03:27;7.30;51.70
1812;DHT22;904;47.814;11.134;2022-12-29T07:05:54;7.30;51.80
1812;DHT22;904;47.814;11.134;2022-12-29T07:08:23;7.20;53.50
1812;DHT22;904;47.814;11.134;2022-12-29T07:10:51;7.10;54.00
1812;DHT22;904;47.814;11.134;2022-12-29T07:13:18;7.00;54.10
1812;DHT22;904;47.814;11.134;2022-12-29T07:15:47;7.00;54.50
1812;DHT22;904;47.814;11.134;2022-12-29T07:18:14;6.80;54.80
1812;DHT22;904;47.814;11.134;2022-12-29T07:20:41;6.70;54.80
1812;DHT22;904;47.814;11.134;2022-12-29T07:23:08;6.70;53.20
1812;DHT22;904;47.814;11.134;2022-12-29T07:25:35;6.70;53.20
1812;DHT22;904;47.814;11.134;2022-12-29T07:28:03;6.80;53.60
1812;DHT22;904;47.814;11.134;2022-12-29T07:30:30;6.90;53.80
1812;DHT22;904;47.814;11.134;2022-12-29T07:32:59;6.90;54.30
1812;DHT22;904;47.814;11.134;2022-12-29T07:35:26;6.90;54.70
1812;DHT22;904;47.814;11.134;2022-12-29T07:37:53;6.90;54.90
1812;DHT22;904;47.814;11.134;2022-12-29T07:40:20;6.90;55.10
1812;DHT22;904;47.814;11.134;2022-12-29T07:42:48;6.90;56.00
1812;DHT22;904;47.814;11.134;2022-12-29T07:45:15;6.80;56.10
1812;DHT22;904;47.814;11.134;2022-12-29T07:47:42;6.90;56.50
1812;DHT22;904;47.814;11.134;2022-12-29T07:50:11;6.80;56.90
1812;DHT22;904;47.814;11.134;2022-12-29T07:52:38;6.80;57.20
1812;DHT22;904;47.814;11.134;2022-12-29T07:55:06;6.80;57.30
1812;DHT22;904;47.814;11.134;2022-12-29T07:57:33;6.90;57.50
1812;DHT22;904;47.814;11.134;2022-12-29T08:00:00;7.00;58.10
1812;DHT22;904;47.814;11.134;2022-12-29T08:02:29;6.90;57.80
1812;DHT22;904;47.814;11.134;2022-12-29T08:04:56;6.80;57.90
1812;DHT22;904;47.814;11.134;2022-12-29T08:07:25;6.70;58.10
1812;DHT22;904;47.814;11.134;2022-12-29T08:09:52;6.70;58.30
1812;DHT22;904;47.814;11.134;2022-12-29T08:12:19;6.60;58.50
1812;DHT22;904;47.814;11.134;2022-12-29T08:14:46;6.70;58.50
1812;DHT22;904;47.814;11.134;2022-12-29T08:17:13;6.80;58.20
1812;DHT22;904;47.814;11.134;2022-12-29T08:19:40;6.90;57.80
1812;DHT22;904;47.814;11.134;2022-12-29T08:22:08;6.90;57.50
1812;DHT22;904;47.814;11.134;2022-12-29T08:24:36;6.90;57.20
1812;DHT22;904;47.814;11.134;2022-12-29T08:27:04;6.70;57.10
1812;DHT22;904;47.814;11.134;2022-12-29T08:29:32;6.80;57.70
1812;DHT22;904;47.814;11.134;2022-12-29T08:32:05;6.80;57.30
1812;DHT22;904;47.814;11.134;2022-12-29T08:34:33;6.80;57.70
1812;DHT22;904;47.814;11.134;2022-12-29T08:37:00;6.90;57.70
1812;DHT22;904;47.814;11.134;2022-12-29T08:39:28;7.00;57.70
1812;DHT22;904;47.814;11.134;2022-12-29T08:41:59;7.20;57.30
1812;DHT22;904;47.814;11.134;2022-12-29T08:44:26;7.40;56.80
1812;DHT22;904;47.814;11.134;2022-12-29T08:46:53;7.80;55.20
1812;DHT22;904;47.814;11.134;2022-12-29T08:49:20;8.00;53.50
1812;DHT22;904;47.814;11.134;2022-12-29T08:51:47;8.10;52.20
1812;DHT22;904;47.814;11.134;2022-12-29T08:54:15;8.10;50.30
1812;DHT22;904;47.814;11.134;2022-12-29T08:56:42;7.90;50.80
1812;DHT22;904;47.814;11.134;2022-12-29T08:59:11;7.90;50.30
1812;DHT22;904;47.814;11.134;2022-12-29T09:01:38;7.90;49.80
1812;DHT22;904;47.814;11.134;2022-12-29T09:04:06;7.90;48.90
1812;DHT22;904;47.814;11.134;2022-12-29T09:06:33;7.90;49.60
1812;DHT22;904;47.814;11.134;2022-12-29T09:09:00;8.10;49.50
1812;DHT22;904;47.814;11.134;2022-12-29T09:11:28;8.40;49.70
1812;DHT22;904;47.814;11.134;2022-12-29T09:13:55;8.50;47.90
1812;DHT22;904;47.814;11.134;2022-12-29T09:16:24;8.80;48.50
1812;DHT22;904;47.814;11.134;2022-12-29T09:18:52;9.20;48.60
1812;DHT22;904;47.814;11.134;2022-12-29T09:21:19;9.60;47.10
1812;DHT22;904;47.814;11.134;2022-12-29T09:23:47;10.00;46.00
1812;DHT22;904;47.814;11.134;2022-12-29T09:26:15;10.50;45.70
1812;DHT22;904;47.814;11.134;2022-12-29T09:28:42;11.10;44.60
1812;DHT22;904;47.814;11.134;2022-12-29T09:31:10;11.60;43.40
1812;DHT22;904;47.814;11.134;2022-12-29T09:33:39;12.00;42.70
1812;DHT22;904;47.814;11.134;2022-12-29T09:36:08;12.50;40.60
1812;DHT22;904;47.814;11.134;2022-12-29T09:38:35;12.90;40.40
1812;DHT22;904;47.814;11.134;2022-12-29T09:41:13;13.30;40.10
1812;DHT22;904;47.814;11.134;2022-12-29T09:44:06;13.30;38.40
1812;DHT22;904;47.814;11.134;2022-12-29T09:46:37;13.40;38.60
1812;DHT22;904;47.814;11.134;2022-12-29T09:49:18;13.30;38.90
1812;DHT22;904;47.814;11.134;2022-12-29T09:51:51;13.40;40.30
1812;DHT22;904;47.814;11.134;2022-12-29T09:54:25;13.20;38.10
1812;DHT22;904;47.814;11.134;2022-12-29T09:56:55;13.00;38.00
1812;DHT22;904;47.814;11.134;2022-12-29T09:59:26;12.90;38.60
1812;DHT22;904;47.814;11.134;2022-12-29T10:01:57;12.60;38.40
1812;DHT22;904;47.814;11.134;2022-12-29T10:04:28;12.50;39.20
1812;DHT22;904;47.814;11.134;2022-12-29T10:06:59;12.30;39.30
1812;DHT22;904;47.814;11.134;2022-12-29T10:09:33;12.20;40.40
1812;DHT22;904;47.814;11.134;2022-12-29T10:12:11;12.20;40.00
1812;DHT22;904;47.814;11.134;2022-12-29T10:14:54;12.10;40.10
1812;DHT22;904;47.814;11.134;2022-12-29T10:17:29;12.00;40.10
1812;DHT22;904;47.814;11.134;2022-12-29T10:20:23;11.90;40.50
1812;DHT22;904;47.814;11.134;2022-12-29T10:23:11;11.80;39.60
1812;DHT22;904;47.814;11.134;2022-12-29T10:25:41;11.70;39.60
1812;DHT22;904;47.814;11.134;2022-12-29T10:28:17;11.70;39.20
1812;DHT22;904;47.814;11.134;2022-12-29T10:30:47;11.70;38.90
1812;DHT22;904;47.814;11.134;2022-12-29T10:33:22;11.50;39.00
1812;DHT22;904;47.814;11.134;2022-12-29T10:35:53;11.30;39.40
1812;DHT22;904;47.814;11.134;2022-12-29T10:38:25;11.30;40.10
1812;DHT22;904;47.814;11.134;2022-12-29T10:40:58;11.30;40.20
1812;DHT22;904;47.814;11.134;2022-12-29T10:43:28;11.30;39.70
1812;DHT22;904;47.814;11.134;2022-12-29T10:45:58;11.30;40.20
1812;DHT22;904;47.814;11.134;2022-12-29T10:48:30;11.40;40.20
1812;DHT22;904;47.814;11.134;2022-12-29T10:51:00;11.60;41.00
1812;DHT22;904;47.814;11.134;2022-12-29T10:53:35;11.70;40.10
1812;DHT22;904;47.814;11.134;2022-12-29T10:56:13;12.00;39.40
1812;DHT22;904;47.814;11.134;2022-12-29T10:58:43;12.20;40.90
1812;DHT22;904;47.814;11.134;2022-12-29T11:01:12;12.40;41.30
1812;DHT22;904;47.814;11.134;2022-12-29T11:03:51;12.60;41.60
1812;DHT22;904;47.814;11.134;2022-12-29T11:06:25;12.80;41.00
1812;DHT22;904;47.814;11.134;2022-12-29T11:08:56;13.00;41.80
1812;DHT22;904;47.814;11.134;2022-12-29T11:11:26;12.90;37.40
1812;DHT22;904;47.814;11.134;2022-12-29T11:13:58;12.90;37.70
1812;DHT22;904;47.814;11.134;2022-12-29T11:16:30;12.70;36.70
1812;DHT22;904;47.814;11.134;2022-12-29T11:18:58;12.80;37.60
1812;DHT22;904;47.814;11.134;2022-12-29T11:21:31;12.70;36.60
1812;DHT22;904;47.814;11.134;2022-12-29T11:24:01;12.60;36.70
1812;DHT22;904;47.814;11.134;2022-12-29T11:26:29;12.40;37.20
1812;DHT22;904;47.814;11.134;2022-12-29T11:29:11;12.30;36.60
1812;DHT22;904;47.814;11.134;2022-12-29T11:31:44;12.20;36.40
1812;DHT22;904;47.814;11.134;2022-12-29T11:34:20;12.10;37.20
1812;DHT22;904;47.814;11.134;2022-12-29T11:36:52;12.00;37.80
1812;DHT22;904;47.814;11.134;2022-12-29T11:39:33;12.10;37.90
1812;DHT22;904;47.814;11.134;2022-12-29T11:42:01;12.20;37.40
1812;DHT22;904;47.814;11.134;2022-12-29T11:44:35;12.10;37.10
1812;DHT22;904;47.814;11.134;2022-12-29T11:47:04;12.30;37.80
1812;DHT22;904;47.814;11.134;2022-12-29T11:49:32;12.60;37.50
1812;DHT22;904;47.814;11.134;2022-12-29T11:52:01;13.00;37.40
1812;DHT22;904;47.814;11.134;2022-12-29T11:54:31;13.40;37.50
1812;DHT22;904;47.814;11.134;2022-12-29T11:57:10;13.50;37.00
1812;DHT22;904;47.814;11.134;2022-12-29T11:59:42;13.60;35.90
1812;DHT22;904;47.814;11.134;2022-12-29T12:02:39;13.80;37.40
1812;DHT22;904;47.814;11.134;2022-12-29T12:05:21;14.00;36.40
1812;DHT22;904;47.814;11.134;2022-12-29T12:07:56;14.20;35.60
1812;DHT22;904;47.814;11.134;2022-12-29T12:10:31;14.30;35.90
1812;DHT22;904;47.814;11.134;2022-12-29T12:13:08;14.40;35.30
1812;DHT22;904;47.814;11.134;2022-12-29T12:15:42;14.70;34.80
1812;DHT22;904;47.814;11.134;2022-12-29T12:18:16;14.60;33.00
1812;DHT22;904;47.814;11.134;2022-12-29T12:20:47;14.50;33.10
1812;DHT22;904;47.814;11.134;2022-12-29T12:23:28;14.50;33.40
1812;DHT22;904;47.814;11.134;2022-12-29T12:26:04;14.50;34.50
1812;DHT22;904;47.814;11.134;2022-12-29T12:28:42;14.80;34.00
1812;DHT22;904;47.814;11.134;2022-12-29T12:31:21;15.00;34.00
1812;DHT22;904;47.814;11.134;2022-12-29T12:33:57;15.30;32.80
1812;DHT22;904;47.814;11.134;2022-12-29T12:36:48;15.60;32.70
1812;DHT22;904;47.814;11.134;2022-12-29T12:39:30;15.90;32.60
1812;DHT22;904;47.814;11.134;2022-12-29T12:42:11;16.30;33.80
1812;DHT22;904;47.814;11.134;2022-12-29T12:44:51;16.90;31.70
1812;DHT22;904;47.814;11.134;2022-12-29T12:47:41;17.10;30.10
1812;DHT22;904;47.814;11.134;2022-12-29T12:50:27;16.80;30.10
1812;DHT22;904;47.814;11.134;2022-12-29T12:53:24;16.70;30.60
1812;DHT22;904;47.814;11.134;2022-12-29T12:56:13;16.70;31.40
1812;DHT22;904;47.814;11.134;2022-12-29T12:58:50;16.80;31.20
1812;DHT22;904;47.814;11.134;2022-12-29T13:01:32;16.80;29.80
1812;DHT22;904;47.814;11.134;2022-12-29T13:04:23;16.70;30.40
1812;DHT22;904;47.814;11.134;2022-12-29T13:07:02;16.50;30.10
1812;DHT22;904;47.814;11.134;2022-12-29T13:09:45;16.30;29.90
1812;DHT22;904;47.814;11.134;2022-12-29T13:12:23;16.00;30.80
1812;DHT22;904;47.814;11.134;2022-12-29T13:15:02;15.70;30.50
1812;DHT22;904;47.814;11.134;2022-12-29T13:17:42;15.50;30.00
1812;DHT22;904;47.814;11.134;2022-12-29T13:20:20;15.30;30.30
1812;DHT22;904;47.814;11.134;2022-12-29T13:22:56;15.10;31.60
1812;DHT22;904;47.814;11.134;2022-12-29T13:25:33;14.90;32.20
1812;DHT22;904;47.814;11.134;2022-12-29T13:28:06;14.70;31.00
1812;DHT22;904;47.814;11.134;2022-12-29T13:30:44;14.60;31.50
1812;DHT22;904;47.814;11.134;2022-12-29T13:33:24;14.50;31.90
1812;DHT22;904;47.814;11.134;2022-12-29T13:35:57;14.40;32.10
1812;DHT22;904;47.814;11.134;2022-12-29T13:38:30;14.30;32.60
1812;DHT22;904;47.814;11.134;2022-12-29T13:41:01;14.20;32.90
1812;DHT22;904;47.814;11.134;2022-12-29T13:43:37;14.20;33.20
1812;DHT22;904;47.814;11.134;2022-12-29T13:46:10;14.10;33.00
1812;DHT22;904;47.814;11.134;2022-12-29T13:48:44;14.00;33.20
1812;DHT22;904;47.814;11.134;2022-12-29T13:51:14;13.90;33.80
1812;DHT22;904;47.814;11.134;2022-12-29T13:53:55;13.80;34.70
1812;DHT22;904;47.814;11.134;2022-12-29T13:56:32;13.70;35.00
1812;DHT22;904;47.814;11.134;2022-12-29T13:59:11;13.60;35.50
1812;DHT22;904;47.814;11.134;2022-12-29T14:01:47;13.50;35.40
1812;DHT22;904;47.814;11.134;2022-12-29T14:04:22;13.40;35.70
1812;DHT22;904;47.814;11.134;2022-12-29T14:07:03;13.30;36.00
1812;DHT22;904;47.814;11.134;2022-12-29T14:09:46;13.10;35.70
1812;DHT22;904;47.814;11.134;2022-12-29T14:12:27;13.10;35.80
1812;DHT22;904;47.814;11.134;2022-12-29T14:15:05;13.10;36.40
1812;DHT22;904;47.814;11.134;2022-12-29T14:17:34;12.90;36.30
1812;DHT22;904;47.814;11.134;2022-12-29T14:20:03;12.80;36.50
1812;DHT22;904;47.814;11.134;2022-12-29T14:22:31;12.80;36.30
1812;DHT22;904;47.814;11.134;2022-12-29T14:24:58;12.80;36.30
1812;DHT22;904;47.814;11.134;2022-12-29T14:30:50;12.70;35.80
1812;DHT22;904;47.814;11.134;2022-12-29T14:33:19;12.80;36.60
1812;DHT22;904;47.814;11.134;2022-12-29T14:35:48;12.70;37.80
1812;DHT22;904;47.814;11.134;2022-12-29T14:38:30;12.70;39.30
1812;DHT22;904;47.814;11.134;2022-12-29T14:41:24;12.70;40.00
1812;DHT22;904;47.814;11.134;2022-12-29T14:44:01;12.60;39.80
1812;DHT22;904;47.814;11.134;2022-12-29T14:46:45;12.60;39.90
1812;DHT22;904;47.814;11.134;2022-12-29T14:49:17;12.50;40.40
1812;DHT22;904;47.814;11.134;2022-12-29T14:51:49;12.50;40.70
1812;DHT22;904;47.814;11.134;2022-12-29T14:54:46;12.40;40.60
1812;DHT22;904;47.814;11.134;2022-12-29T14:57:28;12.40;41.10
1812;DHT22;904;47.814;11.134;2022-12-29T15:00:04;12.30;41.60
1812;DHT22;904;47.814;11.134;2022-12-29T15:02:38;12.20;43.00
1812;DHT22;904;47.814;11.134;2022-12-29T15:05:30;12.10;43.60
1812;DHT22;904;47.814;11.134;2022-12-29T15:07:59;11.90;43.80
1812;DHT22;904;47.814;11.134;2022-12-29T15:10:34;11.80;43.90
1812;DHT22;904;47.814;11.134;2022-12-29T15:13:10;11.70;44.10
1812;DHT22;904;47.814;11.134;2022-12-29T15:15:44;11.60;44.00
1812;DHT22;904;47.814;11.134;2022-12-29T15:18:24;11.50;43.70
1812;DHT22;904;47.814;11.134;2022-12-29T15:20:54;11.50;44.30
1812;DHT22;904;47.814;11.134;2022-12-29T15:23:29;11.30;45.30
1812;DHT22;904;47.814;11.134;2022-12-29T15:25:58;11.20;44.90
1812;DHT22;904;47.814;11.134;2022-12-29T15:28:26;11.10;45.40
1812;DHT22;904;47.814;11.134;2022-12-29T15:30:55;11.10;45.20
1812;DHT22;904;47.814;11.134;2022-12-29T15:33:26;11.00;45.30
1812;DHT22;904;47.814;11.134;2022-12-29T15:35:56;10.90;45.40
1812;DHT22;904;47.814;11.134;2022-12-29T15:38:24;10.70;46.60
1812;DHT22;904;47.814;11.134;2022-12-29T15:40:53;10.50;47.40
1812;DHT22;904;47.814;11.134;2022-12-29T15:43:35;10.50;47.00
1812;DHT22;904;47.814;11.134;2022-12-29T15:46:05;10.40;47.40
1812;DHT22;904;47.814;11.134;2022-12-29T15:48:34;10.40;47.50
1812;DHT22;904;47.814;11.134;2022-12-29T15:51:03;10.40;47.50
1812;DHT22;904;47.814;11.134;2022-12-29T15:53:32;10.30;47.10
1812;DHT22;904;47.814;11.134;2022-12-29T15:56:02;10.30;47.30
1812;DHT22;904;47.814;11.134;2022-12-29T15:58:40;10.30;47.70
1812;DHT22;904;47.814;11.134;2022-12-29T16:01:18;10.20;47.80
1812;DHT22;904;47.814;11.134;2022-12-29T16:03:48;10.10;47.80
1812;DHT22;904;47.814;11.134;2022-12-29T16:06:32;10.10;47.80
1812;DHT22;904;47.814;11.134;2022-12-29T16:09:01;10.00;48.20
1812;DHT22;904;47.814;11.134;2022-12-29T16:11:33;9.90;49.20
1812;DHT22;904;47.814;11.134;2022-12-29T16:14:02;10.00;49.20
1812;DHT22;904;47.814;11.134;2022-12-29T16:16:36;9.90;50.60
1812;DHT22;904;47.814;11.134;2022-12-29T16:19:21;9.90;51.30
1812;DHT22;904;47.814;11.134;2022-12-29T16:21:51;9.90;51.40
1812;DHT22;904;47.814;11.134;2022-12-29T16:24:20;9.90;52.30
1812;DHT22;904;47.814;11.134;2022-12-29T16:26:52;9.90;52.50
1812;DHT22;904;47.814;11.134;2022-12-29T16:29:24;9.80;52.20
1812;DHT22;904;47.814;11.134;2022-12-29T16:31:56;9.80;52.40
1812;DHT22;904;47.814;11.134;2022-12-29T16:34:31;9.80;52.60
1812;DHT22;904;47.814;11.134;2022-12-29T16:37:00;9.80;53.30
1812;DHT22;904;47.814;11.134;2022-12-29T16:39:43;9.80;54.00
1812;DHT22;904;47.814;11.134;2022-12-29T16:42:33;9.70;54.10
1812;DHT22;904;47.814;11.134;2022-12-29T16:45:24;9.70;53.60
1812;DHT22;904;47.814;11.134;2022-12-29T16:48:16;9.70;53.30
1812;DHT22;904;47.814;11.134;2022-12-29T16:51:01;9.70;52.70
1812;DHT22;904;47.814;11.134;2022-12-29T16:53:32;9.70;52.30
1812;DHT22;904;47.814;11.134;2022-12-29T16:56:03;9.70;52.80